Stedman, North Carolina
Current Conditions -  °F | °C
As of 12:53 PM on Monday 24 Nov 2014 (Local Time) from KFAY Reporting Station
Overcast Overcast  
Wind Chill: 71°   Ceiling: 1700
Heat Index: 71°   Visibility: 10mi
Dew Point: 66°   Wind: 10mph
Humidity: 84%   Direction: 200°SSW
Pressure: 29.81"   Gusts: NA
Location:  35.01°N, 78.69°W
Report Text: KFAY 241753Z 20009KT 10SM BKN017 BKN022 OVC065 22/19 A2981 RMK AO2 SLP090 T02170189 10222 20156 57017
Loading
Personal Weather Stations






























Interactive Weather Map New forecast layout! Learn more

10-Day Weather Forecast

Advertisements
Track Severe Weather on mobile